Date,TemperatureHighF,TemperatureAvgF,TemperatureLowF,DewpointHighF,DewpointAvgF,DewpointLowF,HumidityHigh,HumidityAvg,HumidityLow,PressureMaxIn,PressureMinIn,WindSpeedMaxMPH,WindSpeedAvgMPH,GustSpeedMaxMPH,PrecipitationSumIn
2013-10-1,83,76,70,74,70,66,91,81,69,30.03,29.94,7,2,14,0.00
2013-10-2,78,76,74,74,72,70,93,88,78,30.03,29.97,8,1,15,0.08
2013-10-3,83,78,72,74,72,68,92,82,66,30.04,29.95,9,4,16,0.00
2013-10-4,84,80,74,77,74,69,90,83,68,30.04,29.95,7,3,16,0.00
2013-10-5,84,80,75,77,75,73,93,85,76,30.01,29.92,9,3,19,0.00
2013-10-6,80,76,71,74,72,69,95,89,79,29.91,29.76,12,2,21,1.71
2013-10-7,79,71,64,72,64,58,95,79,59,29.91,29.74,13,7,26,0.02
2013-10-8,79,70,61,70,62,55,86,75,62,29.95,29.87,11,4,18,0.00
2013-10-9,75,69,66,68,65,62,90,85,75,30.08,29.95,8,4,15,0.00
2013-10-10,78,71,64,68,66,62,94,83,69,30.07,29.97,5,1,10,0.00
2013-10-11,81,75,68,70,67,63,94,79,58,30.03,29.92,6,1,11,0.01
2013-10-12,83,75,70,71,68,62,92,79,51,30.04,29.95,7,1,13,0.00
2013-10-13,84,76,69,69,64,60,89,68,46,30.11,30.01,10,2,17,0.00
2013-10-14,82,74,70,67,65,62,85,73,55,30.07,29.97,7,3,15,0.00
2013-10-15,78,72,66,68,65,63,91,81,68,30.02,29.92,5,1,12,0.00
2013-10-16,78,73,67,69,66,64,92,80,71,29.98,29.89,5,1,10,0.00
2013-10-17,81,77,72,73,71,67,92,81,71,29.94,29.84,7,2,15,0.00
2013-10-18,76,71,67,70,67,64,93,87,79,29.96,29.87,10,3,16,0.00
2013-10-19,72,69,65,68,65,60,92,86,76,29.95,29.86,10,3,17,0.00
2013-10-20,75,68,61,61,60,58,89,74,60,29.99,29.90,10,3,16,0.00
2013-10-21,72,68,65,65,61,57,88,80,72,30.01,29.92,6,3,14,0.00
2013-10-22,75,69,65,66,64,59,94,84,70,29.94,29.83,6,1,11,0.04
2013-10-23,73,66,59,59,50,42,82,60,35,30.06,29.88,10,6,20,0.00
2013-10-24,70,63,55,57,49,43,76,61,38,30.18,30.06,10,2,16,0.00
2013-10-25,67,61,54,55,46,37,82,60,38,30.30,30.14,12,6,19,0.00
2013-10-26,67,58,50,51,43,35,82,59,35,30.26,30.12,8,3,14,0.00
2013-10-27,71,63,54,60,52,45,89,68,41,30.14,30.05,2,0,9,0.00
2013-10-28,74,67,61,62,58,53,88,74,49,30.18,30.06,4,1,10,0.00
2013-10-29,75,69,61,66,62,58,93,80,63,30.23,30.14,8,2,15,0.00
2013-10-30,75,70,64,70,66,61,93,85,73,30.20,30.05,9,3,16,0.00
2013-10-31,79,76,70,73,71,65,89,84,72,30.06,29.85,12,6,23,0.01